EDT,Max TemperatureF,Mean TemperatureF,Min TemperatureF,Max Dew PointF,MeanDew PointF,Min DewpointF,Max Humidity, Mean Humidity, Min Humidity, Max Sea Level PressureIn, Mean Sea Level PressureIn, Min Sea Level PressureIn, Max VisibilityMiles, Mean VisibilityMiles, Min VisibilityMiles, Max Wind SpeedMPH, Mean Wind SpeedMPH, Max Gust SpeedMPH,PrecipitationIn, CloudCover, Events, WindDirDegrees
2013-5-1,66,56,45,46,38,26,74,54,24,30.49,30.43,30.34,10,10,10,16,4,20,0.00,0,,119
2013-5-2,70,58,45,46,42,38,88,57,32,30.48,30.41,30.33,10,10,10,10,2,,0.00,0,,144
2013-5-3,62,56,51,48,41,34,79,56,39,30.46,30.41,30.36,10,10,10,14,7,17,0.00,1,,112
2013-5-4,64,55,46,46,43,39,89,66,40,30.38,30.30,30.27,10,10,10,16,5,20,0.00,0,,107
2013-5-5,58,53,48,45,41,38,84,66,51,30.30,30.27,30.25,10,10,10,13,7,20,0.00,2,,114
2013-5-6,64,56,49,50,47,44,86,72,57,30.27,30.22,30.17,10,10,10,9,4,,0.00,5,,121
2013-5-7,70,60,50,58,53,47,90,77,63,30.18,30.14,30.09,10,10,7,13,3,18,0.00,2,Rain,114
2013-5-8,69,64,58,62,58,53,96,86,73,30.10,30.02,29.97,10,8,2,16,7,20,0.90,5,Rain-Thunderstorm,97
2013-5-9,70,64,57,61,56,53,96,74,56,30.00,29.93,29.90,10,9,1,10,4,,0.44,5,Rain,286
2013-5-10,81,68,56,59,57,54,94,67,40,30.00,29.95,29.89,10,9,4,12,3,,0.00,0,Thunderstorm,193
2013-5-11,75,69,63,65,63,56,94,86,60,29.91,29.79,29.69,10,8,3,24,4,29,0.48,7,Rain-Thunderstorm,216
2013-5-12,68,60,52,63,42,27,91,50,24,29.95,29.76,29.67,10,10,7,25,11,36,0.00,3,Rain,277
2013-5-13,57,52,46,33,29,25,60,43,29,30.12,30.03,29.96,10,10,10,22,10,32,0.00,2,,284
2013-5-14,63,52,41,34,29,19,73,43,19,30.14,30.10,30.03,10,10,4,15,7,22,0.00,0,,292
2013-5-15,77,64,50,58,47,31,70,57,41,30.07,29.88,29.68,10,10,10,12,3,17,0.00,3,Rain,183
2013-5-16,83,72,61,59,55,44,85,56,31,29.83,29.77,29.72,10,10,10,12,4,22,0.00,1,Rain,260
2013-5-17,75,67,59,46,40,37,51,38,26,30.20,30.05,29.85,10,10,10,13,6,18,0.00,0,,312
2013-5-18,63,61,59,56,51,45,85,69,53,30.31,30.28,30.20,10,10,10,8,2,,0.00,6,Rain,133
2013-5-19,60,58,57,58,57,53,98,94,77,30.31,30.26,30.17,10,3,1,13,5,17,0.34,8,Rain,124
2013-5-20,81,70,59,67,63,58,99,82,57,30.18,30.06,29.96,10,6,0,10,2,16,0.00,5,Fog,256
2013-5-21,89,78,66,70,67,65,96,72,47,29.98,29.91,29.85,10,8,2,12,3,16,0.00,1,,238
2013-5-22,79,70,62,70,65,60,91,78,65,29.94,29.88,29.83,10,7,2,10,3,,0.00,4,,141
2013-5-23,84,77,70,70,68,65,89,78,51,29.89,29.84,29.76,10,9,2,12,4,22,0.26,6,Rain-Thunderstorm,206
2013-5-24,70,59,47,67,53,41,95,86,72,29.97,29.82,29.69,10,8,2,17,8,26,0.45,8,Rain,302
2013-5-25,59,52,46,45,41,35,89,68,45,30.02,29.95,29.92,10,10,7,29,14,41,0.02,8,Rain,303
2013-5-26,70,60,49,39,36,31,66,43,25,30.21,30.06,29.98,10,10,10,22,15,37,0.00,1,,299
2013-5-27,76,62,48,41,38,34,65,41,24,30.26,30.20,30.13,10,10,10,15,4,21,0.00,0,,261
2013-5-28,68,62,56,60,52,42,97,74,44,30.23,30.18,30.13,10,7,0,9,3,,0.37,5,Fog-Rain,121
2013-5-29,89,74,60,69,63,60,99,75,38,30.14,30.07,30.00,10,6,0,13,2,20,0.00,4,Fog-Rain,255
2013-5-30,93,84,74,68,64,60,79,53,33,30.13,30.09,30.06,10,10,10,14,5,18,0.00,0,,261
2013-5-31,94,84,73,69,63,53,75,50,26,30.13,30.07,29.99,10,10,10,10,5,17,0.00,0,,233